createdAt,value
2018-03-17T00:01:50.411Z,90.10
2018-03-17T00:04:17.954Z,90.50
2018-03-17T00:06:46.282Z,90.00
2018-03-17T00:09:14.580Z,90.40
2018-03-17T00:11:42.126Z,90.40
2018-03-17T00:14:09.656Z,88.60
2018-03-17T00:16:37.197Z,88.80
2018-03-17T00:19:04.778Z,88.20
2018-03-17T00:21:32.281Z,88.80
2018-03-17T00:24:00.581Z,89.40
2018-03-17T00:26:28.123Z,89.30
2018-03-17T00:28:56.455Z,90.00
2018-03-17T00:31:23.982Z,90.00
2018-03-17T00:33:51.540Z,90.60
2018-03-17T00:36:19.074Z,90.60
2018-03-17T00:38:47.387Z,89.90
2018-03-17T00:41:14.944Z,89.90
2018-03-17T00:43:42.488Z,89.30
2018-03-17T00:46:11.945Z,89.90
2018-03-17T00:48:40.274Z,88.80
2018-03-17T00:51:07.807Z,88.90
2018-03-17T00:53:35.336Z,88.30
2018-03-17T00:56:02.877Z,88.90
2018-03-17T00:58:30.396Z,90.10
2018-03-17T01:00:58.690Z,90.30
2018-03-17T01:03:26.248Z,90.30
2018-03-17T01:05:53.767Z,90.10
2018-03-17T01:08:21.308Z,90.10
2018-03-17T01:10:48.851Z,89.20
2018-03-17T01:13:16.373Z,89.50
2018-03-17T01:15:44.658Z,90.40
2018-03-17T01:18:12.229Z,90.40
2018-03-17T01:20:39.751Z,90.50
2018-03-17T01:23:07.261Z,90.70
2018-03-17T01:25:34.813Z,90.50
2018-03-17T01:28:02.325Z,91.00
2018-03-17T01:30:29.846Z,91.00
2018-03-17T01:32:57.395Z,90.60
2018-03-17T01:35:24.930Z,90.20
2018-03-17T01:37:52.465Z,90.10
2018-03-17T01:40:20.778Z,90.60
2018-03-17T01:42:48.290Z,90.60
2018-03-17T01:45:15.810Z,90.70
2018-03-17T01:47:43.353Z,90.50
2018-03-17T01:50:10.865Z,90.70
2018-03-17T01:52:38.385Z,91.20
2018-03-17T01:55:05.945Z,91.10
2018-03-17T01:57:33.471Z,91.30
2018-03-17T02:00:01.772Z,91.20
2018-03-17T02:02:29.321Z,91.20
2018-03-17T02:04:56.855Z,91.90
2018-03-17T02:07:25.153Z,91.20
2018-03-17T02:09:52.705Z,91.20
2018-03-17T02:12:21.012Z,90.70
2018-03-17T02:14:48.543Z,90.70
2018-03-17T02:17:16.202Z,90.80
2018-03-17T02:19:43.619Z,90.70
2018-03-17T02:22:12.953Z,90.80
2018-03-17T02:24:41.270Z,90.70
2018-03-17T02:27:08.812Z,90.70
2018-03-17T02:29:36.331Z,91.10
2018-03-17T02:32:03.897Z,91.50
2018-03-17T02:34:32.203Z,91.40
2018-03-17T02:36:59.740Z,91.40
2018-03-17T02:39:28.068Z,91.20
2018-03-17T02:41:55.610Z,91.20
2018-03-17T02:44:23.136Z,91.50
2018-03-17T02:46:51.455Z,92.00
2018-03-17T02:49:18.974Z,92.00
2018-03-17T02:51:47.269Z,91.90
2018-03-17T02:54:14.833Z,91.90
2018-03-17T02:56:42.368Z,91.70
2018-03-17T02:59:10.668Z,91.90
2018-03-17T03:01:38.216Z,91.60
2018-03-17T03:04:05.739Z,91.70
2018-03-17T03:06:33.274Z,91.60
2018-03-17T03:09:00.826Z,91.70
2018-03-17T03:11:28.341Z,92.40
2018-03-17T03:13:56.635Z,92.20
2018-03-17T03:16:24.200Z,92.20
2018-03-17T03:18:51.728Z,92.10
2018-03-17T03:21:20.012Z,92.00
2018-03-17T03:23:48.312Z,91.90
2018-03-17T03:26:15.832Z,91.90
2018-03-17T03:28:43.345Z,91.90
2018-03-17T03:31:10.905Z,91.90
2018-03-17T03:33:38.422Z,92.00
2018-03-17T03:36:06.723Z,92.20
2018-03-17T03:38:34.284Z,92.10
2018-03-17T03:41:01.824Z,91.80
2018-03-17T03:43:30.124Z,92.00
2018-03-17T03:45:57.660Z,92.00
2018-03-17T03:48:25.194Z,92.20
2018-03-17T03:50:52.735Z,92.00
2018-03-17T03:53:20.286Z,91.50
2018-03-17T03:55:47.806Z,91.70
2018-03-17T03:58:15.333Z,91.70
2018-03-17T04:00:43.646Z,91.70
2018-03-17T04:03:11.165Z,91.70
2018-03-17T04:05:38.692Z,91.70
2018-03-17T04:08:06.258Z,91.80
2018-03-17T04:10:33.800Z,91.80
2018-03-17T04:13:01.321Z,92.00
2018-03-17T04:15:29.625Z,92.00
2018-03-17T04:17:57.159Z,92.00
2018-03-17T04:20:25.456Z,92.10
2018-03-17T04:22:52.998Z,92.10
2018-03-17T04:25:21.301Z,92.20
2018-03-17T04:27:48.832Z,92.20
2018-03-17T04:30:17.142Z,91.90
2018-03-17T04:32:44.670Z,91.90
2018-03-17T04:35:12.197Z,92.00
2018-03-17T04:37:39.732Z,92.00
2018-03-17T04:40:07.268Z,92.10
2018-03-17T04:42:34.807Z,91.70
2018-03-17T04:45:02.356Z,91.90
2018-03-17T04:47:30.648Z,91.80
2018-03-17T04:49:58.180Z,91.80
2018-03-17T04:52:26.487Z,91.90
2018-03-17T04:54:54.018Z,91.80
2018-03-17T04:57:22.307Z,92.10
2018-03-17T04:59:50.630Z,92.00
2018-03-17T05:02:18.163Z,92.00
2018-03-17T05:04:45.704Z,92.00
2018-03-17T05:07:14.007Z,92.30
2018-03-17T05:09:41.526Z,92.30
2018-03-17T05:12:09.843Z,92.00
2018-03-17T05:14:37.409Z,92.00
2018-03-17T05:17:04.928Z,92.20
2018-03-17T05:19:33.212Z,92.50
2018-03-17T05:22:01.543Z,92.50
2018-03-17T05:24:29.062Z,92.50
2018-03-17T05:26:56.604Z,92.60
2018-03-17T05:29:24.929Z,92.40
2018-03-17T05:31:52.453Z,92.40
2018-03-17T05:34:19.991Z,92.40
2018-03-17T05:36:48.299Z,92.50
2018-03-17T05:39:15.828Z,92.40
2018-03-17T05:41:44.127Z,92.60
2018-03-17T05:44:11.691Z,92.40
2018-03-17T05:46:39.213Z,92.40
2018-03-17T05:49:06.748Z,92.50
2018-03-17T05:51:34.303Z,92.70
2018-03-17T05:54:01.825Z,92.40
2018-03-17T05:56:29.343Z,92.30
2018-03-17T05:58:57.667Z,92.20
2018-03-17T06:01:25.201Z,92.20
2018-03-17T06:03:53.486Z,92.90
2018-03-17T06:06:21.044Z,92.90
2018-03-17T06:08:49.344Z,93.10
2018-03-17T06:11:16.857Z,93.10
2018-03-17T06:13:44.420Z,92.90
2018-03-17T06:16:12.714Z,92.80
2018-03-17T06:18:40.999Z,92.80
2018-03-17T06:21:08.570Z,92.70
2018-03-17T06:23:36.083Z,92.60
2018-03-17T06:26:03.609Z,92.80
2018-03-17T06:28:31.158Z,92.80
2018-03-17T06:30:58.673Z,92.60
2018-03-17T06:33:26.961Z,92.20
2018-03-17T06:35:55.268Z,91.80
2018-03-17T06:38:22.795Z,91.80
2018-03-17T06:40:50.452Z,91.50
2018-03-17T06:43:18.771Z,90.90
2018-03-17T06:45:46.307Z,90.90
2018-03-17T06:48:13.828Z,91.00
2018-03-17T06:50:41.381Z,90.20
2018-03-17T06:53:08.893Z,89.10
2018-03-17T06:55:37.031Z,87.60
2018-03-17T06:58:05.346Z,81.40
2018-03-17T07:00:32.915Z,81.50
2018-03-17T07:03:00.413Z,78.80
2018-03-17T07:05:27.965Z,75.60
2018-03-17T07:07:55.493Z,73.10
2018-03-17T07:10:23.028Z,72.00
2018-03-17T07:12:50.575Z,70.40
2018-03-17T07:15:18.860Z,66.70
2018-03-17T07:17:46.434Z,66.60
2018-03-17T07:20:14.732Z,68.50
2018-03-17T07:22:42.248Z,68.40
2018-03-17T07:25:09.785Z,67.40
2018-03-17T07:27:38.117Z,65.80
2018-03-17T07:30:05.646Z,65.80
2018-03-17T07:32:33.230Z,65.10
2018-03-17T07:35:00.782Z,65.20
2018-03-17T07:37:28.308Z,65.70
2018-03-17T07:39:56.625Z,66.00
2018-03-17T07:42:24.213Z,65.40
2018-03-17T07:44:51.731Z,64.10
2018-03-17T07:47:19.258Z,64.60
2018-03-17T07:49:47.572Z,65.50
2018-03-17T07:52:15.099Z,65.50
2018-03-17T07:54:43.377Z,63.70
2018-03-17T07:57:11.708Z,62.80
2018-03-17T07:59:39.249Z,63.40
2018-03-17T08:02:06.776Z,59.40
2018-03-17T08:04:35.083Z,62.30
2018-03-17T08:07:02.629Z,62.20
2018-03-17T08:09:30.177Z,62.00
2018-03-17T08:11:57.757Z,64.00
2018-03-17T08:14:25.354Z,65.80
2018-03-17T08:16:52.834Z,67.30
2018-03-17T08:19:20.411Z,70.30
2018-03-17T08:21:47.961Z,71.80
2018-03-17T08:24:16.239Z,72.10
2018-03-17T08:26:43.821Z,72.00
2018-03-17T08:29:11.362Z,67.00
2018-03-17T08:31:39.654Z,68.50
2018-03-17T08:34:07.243Z,68.50
2018-03-17T08:36:34.753Z,67.10
2018-03-17T08:39:03.070Z,69.10
2018-03-17T08:41:30.642Z,69.10
2018-03-17T08:43:58.175Z,68.30
2018-03-17T08:46:25.703Z,64.90
2018-03-17T08:48:54.027Z,65.40
2018-03-17T08:51:21.546Z,65.30
2018-03-17T08:53:49.869Z,66.10
2018-03-17T08:56:17.439Z,66.10
2018-03-17T08:58:44.998Z,68.50
2018-03-17T09:01:12.546Z,66.80
2018-03-17T09:03:40.106Z,65.30
2018-03-17T09:06:07.659Z,66.50
2018-03-17T09:08:35.202Z,68.30
2018-03-17T09:11:02.762Z,67.10
2018-03-17T09:13:30.282Z,68.70
2018-03-17T09:15:58.597Z,67.40
2018-03-17T09:18:26.152Z,67.40
2018-03-17T09:20:53.706Z,69.50
2018-03-17T09:23:21.249Z,69.00
2018-03-17T09:25:49.577Z,67.60
2018-03-17T09:28:17.143Z,67.50
2018-03-17T09:30:44.692Z,66.60
2018-03-17T09:33:12.255Z,67.90
2018-03-17T09:35:39.791Z,68.40
2018-03-17T09:38:07.331Z,67.30
2018-03-17T09:40:34.896Z,66.00
2018-03-17T09:43:02.428Z,66.60
2018-03-17T09:45:30.725Z,68.30
2018-03-17T09:47:59.040Z,68.40
2018-03-17T09:50:26.571Z,68.40
2018-03-17T09:52:54.102Z,66.10
2018-03-17T09:55:21.660Z,63.70
2018-03-17T09:57:49.991Z,62.60
2018-03-17T10:00:17.520Z,62.60
2018-03-17T10:02:45.828Z,63.30
2018-03-17T10:05:13.345Z,63.90
2018-03-17T10:07:41.630Z,64.20
2018-03-17T10:10:09.966Z,63.70
2018-03-17T10:12:37.485Z,63.70
2018-03-17T10:15:05.000Z,62.60
2018-03-17T10:17:32.573Z,61.60
2018-03-17T10:20:00.940Z,61.30
2018-03-17T10:22:28.461Z,61.20
2018-03-17T10:24:56.030Z,58.40
2018-03-17T10:27:24.340Z,58.50
2018-03-17T10:29:51.862Z,58.60
2018-03-17T10:32:19.415Z,60.00
2018-03-17T10:34:46.963Z,59.30
2018-03-17T10:37:14.480Z,60.20
2018-03-17T10:39:43.878Z,63.00
2018-03-17T10:42:11.389Z,63.00
2018-03-17T10:44:38.909Z,65.20
2018-03-17T10:47:07.230Z,63.90
2018-03-17T10:49:36.647Z,63.90
2018-03-17T10:52:04.193Z,65.00
2018-03-17T10:54:32.447Z,66.50
2018-03-17T10:56:59.975Z,68.10
2018-03-17T10:59:28.267Z,70.40
2018-03-17T11:02:01.631Z,70.40
2018-03-17T11:04:29.162Z,70.40
2018-03-17T11:06:56.729Z,70.20
2018-03-17T11:09:24.294Z,70.10
2018-03-17T11:11:51.839Z,70.60
2018-03-17T11:14:19.405Z,70.90
2018-03-17T11:16:46.984Z,72.30
2018-03-17T11:19:14.535Z,74.40
2018-03-17T11:21:42.094Z,75.90
2018-03-17T11:24:09.679Z,76.20
2018-03-17T11:26:37.994Z,76.50
2018-03-17T11:29:05.524Z,76.50
2018-03-17T11:31:33.868Z,77.80
2018-03-17T11:34:01.420Z,77.80
2018-03-17T11:36:28.951Z,78.00
2018-03-17T11:38:56.512Z,77.50
2018-03-17T11:41:24.066Z,77.80
2018-03-17T11:43:51.616Z,77.90
2018-03-17T11:46:19.157Z,78.20
2018-03-17T11:48:47.465Z,79.80
2018-03-17T11:51:15.001Z,79.70
2018-03-17T11:53:42.575Z,79.70
2018-03-17T11:56:10.096Z,79.50
2018-03-17T11:58:37.646Z,80.60
2018-03-17T12:01:05.211Z,80.30
2018-03-17T12:03:32.758Z,80.40
2018-03-17T12:06:00.314Z,80.80
2018-03-17T12:08:27.877Z,81.70
2018-03-17T12:10:55.416Z,81.10
2018-03-17T12:13:22.946Z,80.90
2018-03-17T12:15:50.521Z,81.00
2018-03-17T12:18:18.076Z,81.30
2018-03-17T12:20:45.602Z,81.20
2018-03-17T12:23:13.910Z,80.60
2018-03-17T12:25:41.445Z,80.50
2018-03-17T12:28:09.730Z,80.10
2018-03-17T12:30:37.299Z,80.10
2018-03-17T12:33:04.835Z,81.70
2018-03-17T12:35:33.147Z,83.80
2018-03-17T12:38:00.704Z,83.80
2018-03-17T12:40:28.236Z,84.50
2018-03-17T12:42:56.545Z,83.80
2018-03-17T12:45:24.095Z,83.90
2018-03-17T12:47:51.632Z,84.60
2018-03-17T12:50:19.932Z,84.10
2018-03-17T12:52:47.513Z,84.10
2018-03-17T12:55:15.048Z,84.20
2018-03-17T12:57:42.569Z,83.30
2018-03-17T13:00:10.903Z,85.30
2018-03-17T13:02:38.424Z,85.30
2018-03-17T13:05:06.725Z,85.30
2018-03-17T13:07:34.268Z,85.30
2018-03-17T13:10:01.821Z,86.00
2018-03-17T13:12:30.129Z,86.10
2018-03-17T13:14:57.670Z,86.00
2018-03-17T13:17:25.200Z,85.90
2018-03-17T13:19:53.513Z,87.20
2018-03-17T13:22:21.070Z,87.10
2018-03-17T13:24:48.589Z,87.60
2018-03-17T13:27:27.902Z,87.40
2018-03-17T13:29:55.444Z,88.20
2018-03-17T13:32:34.991Z,86.70
2018-03-17T13:35:02.567Z,86.50
2018-03-17T13:37:37.102Z,87.20
2018-03-17T13:40:16.512Z,87.30
2018-03-17T13:42:44.079Z,88.70
2018-03-17T13:45:11.598Z,87.80
2018-03-17T13:47:39.150Z,88.70
2018-03-17T13:50:06.757Z,89.30
2018-03-17T13:52:34.268Z,89.10
2018-03-17T13:55:01.811Z,88.20
2018-03-17T13:57:30.138Z,88.50
2018-03-17T13:59:57.687Z,88.50
2018-03-17T14:02:25.212Z,88.50
2018-03-17T14:04:53.554Z,89.20
2018-03-17T14:07:21.078Z,89.10
2018-03-17T14:09:48.626Z,88.80
2018-03-17T14:12:16.193Z,88.50
2018-03-17T14:14:43.718Z,88.00
2018-03-17T14:17:12.071Z,89.70
2018-03-17T14:19:39.639Z,89.70
2018-03-17T14:22:07.172Z,89.10
2018-03-17T14:24:34.700Z,89.20
2018-03-17T14:27:02.260Z,89.90
2018-03-17T14:29:29.812Z,90.40
2018-03-17T14:31:57.344Z,90.30
2018-03-17T14:34:24.910Z,90.10
2018-03-17T14:36:52.462Z,90.10
2018-03-17T14:39:19.999Z,89.80
2018-03-17T14:41:47.547Z,90.20
2018-03-17T14:44:15.060Z,90.30
2018-03-17T14:46:42.604Z,90.10
2018-03-17T14:49:10.937Z,89.50
2018-03-17T14:51:38.470Z,89.50
2018-03-17T14:54:06.003Z,89.90
2018-03-17T14:56:34.342Z,89.70
2018-03-17T14:59:01.870Z,89.60
2018-03-17T15:01:29.402Z,88.80
2018-03-17T15:03:57.735Z,89.30
2018-03-17T15:06:25.278Z,89.30
2018-03-17T15:08:52.798Z,88.80
2018-03-17T15:11:21.108Z,89.10
2018-03-17T15:13:48.642Z,89.10
2018-03-17T15:16:16.170Z,89.70
2018-03-17T15:18:43.736Z,89.80
2018-03-17T15:21:12.020Z,89.10
2018-03-17T15:23:40.321Z,89.20
2018-03-17T15:26:07.880Z,89.20
2018-03-17T15:28:35.399Z,89.50
2018-03-17T15:31:02.958Z,89.60
2018-03-17T15:33:30.510Z,89.60
2018-03-17T15:35:58.034Z,90.10
2018-03-17T15:38:25.546Z,90.10
2018-03-17T15:40:53.872Z,90.40
2018-03-17T15:43:21.427Z,90.40
2018-03-17T15:45:49.712Z,89.90
2018-03-17T15:48:17.271Z,89.90
2018-03-17T15:50:44.791Z,90.00
2018-03-17T15:53:13.854Z,89.50
2018-03-17T15:55:41.393Z,89.50
2018-03-17T15:58:08.941Z,89.30
2018-03-17T16:00:36.475Z,89.70
2018-03-17T16:03:04.056Z,89.90
2018-03-17T16:05:31.591Z,90.10
2018-03-17T16:07:59.114Z,90.10
2018-03-17T16:10:26.655Z,90.20
2018-03-17T16:12:54.184Z,90.20
2018-03-17T16:15:21.705Z,90.60
2018-03-17T16:17:50.042Z,90.50
2018-03-17T16:20:17.586Z,90.50
2018-03-17T16:22:45.967Z,90.30
2018-03-17T16:25:13.538Z,90.10
2018-03-17T16:27:41.084Z,90.30
2018-03-17T16:30:08.601Z,90.20
2018-03-17T16:32:36.904Z,90.20
2018-03-17T16:35:04.441Z,90.10
2018-03-17T16:37:32.745Z,90.60
2018-03-17T16:40:00.291Z,90.60
2018-03-17T16:42:27.823Z,90.20
2018-03-17T16:44:56.132Z,90.20
2018-03-17T16:47:23.696Z,90.20
2018-03-17T16:49:51.214Z,90.00
2018-03-17T16:52:18.737Z,90.10
2018-03-17T16:54:46.284Z,90.20
2018-03-17T16:57:13.813Z,89.90
2018-03-17T16:59:41.331Z,90.50
2018-03-17T17:02:08.894Z,90.40
2018-03-17T17:04:36.430Z,90.40
2018-03-17T17:07:03.978Z,90.50
2018-03-17T17:09:31.540Z,90.90
2018-03-17T17:11:59.076Z,91.10
2018-03-17T17:14:26.623Z,91.10
2018-03-17T17:16:54.953Z,91.50
2018-03-17T17:19:22.470Z,91.40
2018-03-17T17:21:49.995Z,91.30
2018-03-17T17:24:17.548Z,91.40
2018-03-17T17:26:45.868Z,91.30
2018-03-17T17:29:13.396Z,91.40
2018-03-17T17:31:41.727Z,91.70
2018-03-17T17:34:09.268Z,91.70
2018-03-17T17:36:36.801Z,91.80
2018-03-17T17:39:05.122Z,91.40
2018-03-17T17:41:32.656Z,91.40
2018-03-17T17:44:00.179Z,91.10
2018-03-17T17:46:27.737Z,91.20
2018-03-17T17:48:55.287Z,91.20
2018-03-17T17:51:22.822Z,91.20
2018-03-17T17:53:50.370Z,91.80
2018-03-17T17:56:17.996Z,91.90
2018-03-17T17:58:45.486Z,92.10
2018-03-17T18:01:13.058Z,92.40
2018-03-17T18:03:40.599Z,92.30
2018-03-17T18:06:08.136Z,91.90
2018-03-17T18:08:36.460Z,91.50
2018-03-17T18:11:04.009Z,91.50
2018-03-17T18:13:31.536Z,91.90
2018-03-17T18:15:59.101Z,92.10
2018-03-17T18:18:26.637Z,91.90
2018-03-17T18:20:54.937Z,91.80
2018-03-17T18:23:22.492Z,91.80
2018-03-17T18:25:50.004Z,91.60
2018-03-17T18:28:17.535Z,92.00
2018-03-17T18:30:45.080Z,92.00
2018-03-17T18:33:12.595Z,92.10
2018-03-17T18:35:40.120Z,92.10
2018-03-17T18:38:07.675Z,92.10
2018-03-17T18:40:35.191Z,92.10
2018-03-17T18:43:03.475Z,92.00
2018-03-17T18:45:31.020Z,92.00
2018-03-17T18:47:59.310Z,92.50
2018-03-17T18:50:26.835Z,92.50
2018-03-17T18:52:54.396Z,91.50
2018-03-17T18:55:21.919Z,91.30
2018-03-17T18:57:49.437Z,91.60
2018-03-17T19:00:17.806Z,91.60
2018-03-17T19:02:45.337Z,91.60
2018-03-17T19:05:12.851Z,90.90
2018-03-17T19:07:40.395Z,91.00
2018-03-17T19:10:08.716Z,91.40
2018-03-17T19:12:36.240Z,91.40
2018-03-17T19:15:03.812Z,91.40
2018-03-17T19:17:31.340Z,91.70
2018-03-17T19:19:59.638Z,91.60
2018-03-17T19:22:27.204Z,91.60
2018-03-17T19:24:54.735Z,91.60
2018-03-17T19:27:23.052Z,91.80
2018-03-17T19:29:50.595Z,91.80
2018-03-17T19:32:18.114Z,91.40
2018-03-17T19:34:45.656Z,91.40
2018-03-17T19:37:13.204Z,91.20
2018-03-17T19:39:40.740Z,91.30
2018-03-17T19:42:08.352Z,91.30
2018-03-17T19:44:35.910Z,91.20
2018-03-17T19:47:03.429Z,91.10
2018-03-17T19:49:30.956Z,91.30
2018-03-17T19:51:59.273Z,91.80
2018-03-17T19:54:26.796Z,91.80
2018-03-17T19:56:54.322Z,91.50
2018-03-17T19:59:21.871Z,91.00
2018-03-17T20:01:49.400Z,91.40
2018-03-17T20:04:16.918Z,91.40
2018-03-17T20:06:45.233Z,91.60
2018-03-17T20:09:12.777Z,91.50
2018-03-17T20:11:40.307Z,91.40
2018-03-17T20:14:08.628Z,91.50
2018-03-17T20:16:36.193Z,91.80
2018-03-17T20:19:04.547Z,91.20
2018-03-17T20:21:32.162Z,91.20
2018-03-17T20:23:59.685Z,91.20
2018-03-17T20:26:27.202Z,90.60
2018-03-17T20:28:55.518Z,90.70
2018-03-17T20:31:23.083Z,90.70
2018-03-17T20:33:50.611Z,90.30
2018-03-17T20:36:18.939Z,89.60
2018-03-17T20:38:46.457Z,89.70
2018-03-17T20:41:13.987Z,90.00
2018-03-17T20:43:42.319Z,89.70
2018-03-17T20:46:09.847Z,89.60
2018-03-17T20:48:37.362Z,90.40
2018-03-17T20:51:04.930Z,90.40
2018-03-17T20:53:32.462Z,90.30
2018-03-17T20:55:59.988Z,88.20
2018-03-17T20:58:27.560Z,88.30
2018-03-17T21:00:55.079Z,88.90
2018-03-17T21:03:23.364Z,90.30
2018-03-17T21:05:51.995Z,90.30
2018-03-17T21:08:19.532Z,90.30
2018-03-17T21:10:47.050Z,90.80
2018-03-17T21:13:14.616Z,91.00
2018-03-17T21:15:42.899Z,90.30
2018-03-17T21:18:11.190Z,90.40
2018-03-17T21:20:38.734Z,90.40
2018-03-17T21:23:07.027Z,90.20
2018-03-17T21:25:34.540Z,90.20
2018-03-17T21:28:02.098Z,89.00
2018-03-17T21:30:30.387Z,89.00
2018-03-17T21:32:57.920Z,89.00
2018-03-17T21:35:25.486Z,89.00
2018-03-17T21:37:53.009Z,89.60
2018-03-17T21:40:20.529Z,90.00
2018-03-17T21:42:48.069Z,90.50
2018-03-17T21:45:15.600Z,90.00
2018-03-17T21:47:43.119Z,90.00
2018-03-17T21:50:11.455Z,88.80
2018-03-17T21:52:38.973Z,88.80
2018-03-17T21:55:06.504Z,89.20
2018-03-17T21:57:34.835Z,88.10
2018-03-17T22:00:02.354Z,88.10
2018-03-17T22:02:30.638Z,88.80
2018-03-17T22:04:58.958Z,89.20
2018-03-17T22:07:26.473Z,89.10
2018-03-17T22:09:54.774Z,88.70
2018-03-17T22:12:22.339Z,88.70
2018-03-17T22:14:49.862Z,88.30
2018-03-17T22:17:18.151Z,87.60
2018-03-17T22:19:45.713Z,87.60
2018-03-17T22:22:13.244Z,87.60
2018-03-17T22:24:41.543Z,86.00
2018-03-17T22:27:09.097Z,86.00
2018-03-17T22:29:37.394Z,88.00
2018-03-17T22:32:04.935Z,88.10
2018-03-17T22:34:33.242Z,89.60
2018-03-17T22:37:00.761Z,89.60
2018-03-17T22:39:29.056Z,89.30
2018-03-17T22:41:56.622Z,89.20
2018-03-17T22:44:24.148Z,88.30
2018-03-17T22:46:51.675Z,89.20
2018-03-17T22:49:19.216Z,88.70
2018-03-17T22:51:46.736Z,88.00
2018-03-17T22:54:15.030Z,89.50
2018-03-17T22:56:42.588Z,89.40
2018-03-17T22:59:10.536Z,88.20
2018-03-17T23:01:38.826Z,89.50
2018-03-17T23:04:07.135Z,90.00
2018-03-17T23:06:34.654Z,90.00
2018-03-17T23:09:02.956Z,90.30
2018-03-17T23:11:30.496Z,90.30
2018-03-17T23:13:58.788Z,90.10
2018-03-17T23:16:26.301Z,90.10
2018-03-17T23:18:53.841Z,89.90
2018-03-17T23:21:21.356Z,90.30
2018-03-17T23:23:48.893Z,90.40
2018-03-17T23:26:17.316Z,90.20
2018-03-17T23:28:44.832Z,90.20
2018-03-17T23:31:13.117Z,89.90
2018-03-17T23:33:40.713Z,89.90
2018-03-17T23:36:08.231Z,90.30
2018-03-17T23:38:36.528Z,90.10
2018-03-17T23:41:04.066Z,90.10
2018-03-17T23:43:32.363Z,88.90
2018-03-17T23:45:59.887Z,88.80
2018-03-17T23:48:27.441Z,89.10
2018-03-17T23:50:54.962Z,90.00
2018-03-17T23:53:22.496Z,89.80
2018-03-17T23:55:50.051Z,89.20
2018-03-17T23:58:17.575Z,89.70
